Time;durP1;ratioP1;P1;durP2;ratioP2;P2;SDS_P1;SDS_P2;PMS_P1;PMS_P2;Temp;Humidity;BMP_temperature;BMP_pressure;BME280_temperature;BME280_humidity;BME280_pressure;Samples;Min_cycle;Max_cycle;Signal;HPM_P1;HPM_P2
2022/03/27 00:02:10;;;;;;;0.22;0.17;;;;;;;18.15;29.39;97120.75;5151823;27;20006;-70
2022/03/27 00:04:36;;;;;;;0.30;0.10;;;;;;;18.11;29.62;97114.22;5151935;27;20015;-72
2022/03/27 00:07:02;;;;;;;0.45;0.20;;;;;;;18.07;29.47;97115.72;5151228;27;20004;-71
2022/03/27 00:09:27;;;;;;;0.60;0.20;;;;;;;18.04;28.79;97113.50;5148719;27;20030;-67
2022/03/27 00:11:53;;;;;;;1.33;0.20;;;;;;;17.97;29.51;97114.44;5133073;27;20052;-68
2022/03/27 00:14:18;;;;;;;0.50;0.30;;;;;;;17.96;29.15;97110.09;5151918;27;20090;-68
2022/03/27 00:16:44;;;;;;;0.52;0.20;;;;;;;18.00;29.49;97115.81;5134264;27;20028;-69
2022/03/27 00:19:10;;;;;;;1.45;0.28;;;;;;;18.08;29.68;97110.16;5150840;27;20078;-71
2022/03/27 00:21:35;;;;;;;0.68;0.28;;;;;;;18.14;29.62;97121.81;5150907;27;20014;-72
2022/03/27 00:24:01;;;;;;;1.20;0.30;;;;;;;18.10;29.20;97113.41;5129783;27;20019;-70
2022/03/27 00:26:27;;;;;;;2.20;0.30;;;;;;;18.14;29.71;97129.84;5151769;27;20220;-72
2022/03/27 00:28:52;;;;;;;2.45;0.30;;;;;;;18.20;29.41;97109.38;5151580;27;20213;-71
2022/03/27 15:04:10;;;;;;;2.83;0.50;;;;;;;15.10;24.78;98510.63;5195059;27;20231;-68
2022/03/27 15:06:35;;;;;;;0.47;0.47;;;;;;;15.39;24.80;98502.91;5184749;27;20022;-65
2022/03/27 15:09:02;;;;;;;1.63;0.40;;;;;;;15.70;23.49;98504.69;5166290;27;20023;-67
2022/03/27 15:11:28;;;;;;;1.38;0.70;;;;;;;15.95;23.50;98520.53;5169735;27;20038;-66
2022/03/27 15:13:53;;;;;;;2.42;0.32;;;;;;;16.19;22.98;98526.63;5187603;27;20034;-64
2022/03/27 15:16:19;;;;;;;0.68;0.50;;;;;;;16.37;22.13;98532.47;5170894;27;20111;-65
2022/03/27 15:18:45;;;;;;;3.38;0.75;;;;;;;16.50;22.36;98528.31;5166111;27;20023;-66
2022/03/27 15:21:10;;;;;;;1.08;0.50;;;;;;;16.68;22.22;98528.78;5168289;27;20022;-66
2022/03/27 15:23:36;;;;;;;1.40;0.43;;;;;;;16.84;22.93;98548.25;5176622;27;20030;-67
2022/03/27 15:26:03;;;;;;;2.92;0.68;;;;;;;16.98;21.50;98550.16;5181300;27;20070;-68
2022/03/27 15:28:29;;;;;;;14.60;1.00;;;;;;;17.11;21.59;98559.34;5167432;27;20128;-66
2022/03/27 15:30:58;;;;;;;0.73;0.30;;;;;;;17.21;20.86;98563.34;5166656;27;20220;-67
2022/03/27 15:33:23;;;;;;;2.15;0.43;;;;;;;17.32;20.58;98555.88;5165712;27;20033;-66
2022/03/27 15:35:49;;;;;;;3.20;0.38;;;;;;;17.36;20.15;98576.69;5165952;27;20124;-66
2022/03/27 15:38:14;;;;;;;0.57;0.30;;;;;;;17.39;20.56;98572.81;5166099;27;20030;-66
2022/03/27 15:40:44;;;;;;;2.05;0.40;;;;;;;17.49;20.99;98567.16;5166193;27;20015;-66
2022/03/27 15:43:09;;;;;;;3.53;0.70;;;;;;;17.59;20.32;98577.53;5166228;27;20055;-67
2022/03/27 15:45:35;;;;;;;1.40;0.57;;;;;;;17.66;20.35;98589.13;5169186;27;20023;-73
2022/03/27 15:48:04;;;;;;;0.93;0.50;;;;;;;17.68;20.23;98600.47;5163444;27;20022;-68
2022/03/27 15:50:32;;;;;;;0.75;0.40;;;;;;;17.74;20.52;98591.69;5161067;27;20033;-70
2022/03/27 15:52:58;;;;;;;0.88;0.32;;;;;;;17.80;20.92;98598.13;5166320;27;20037;-70
2022/03/27 20:21:17;;;;;;;0.77;0.50;;;;;;;15.19;21.41;98902.25;6077236;22;20045;-67
2022/03/27 20:23:42;;;;;;;3.17;0.50;;;;;;;15.50;21.55;98905.09;5048120;28;20068;-67
2022/03/27 20:26:08;;;;;;;2.10;0.82;;;;;;;15.76;21.53;98903.19;5063591;28;20071;-67
2022/03/27 20:28:34;;;;;;;2.22;0.70;;;;;;;15.96;20.62;98903.69;5051434;28;20033;-66
2022/03/27 20:31:02;;;;;;;1.55;0.73;;;;;;;16.12;20.76;98894.81;5034856;28;20033;-66
2022/03/27 20:33:28;;;;;;;0.80;0.50;;;;;;;16.28;20.24;98899.22;5049167;28;20029;-66
2022/03/27 20:35:54;;;;;;;1.38;0.47;;;;;;;16.43;20.29;98910.84;5052659;28;20029;-67
2022/03/27 20:38:19;;;;;;;1.15;0.65;;;;;;;16.58;20.10;98910.09;5054490;28;20037;-67
2022/03/27 20:40:46;;;;;;;1.35;0.60;;;;;;;16.70;19.48;98911.38;5052054;28;20056;-66
2022/03/27 20:43:13;;;;;;;0.90;0.50;;;;;;;16.78;19.08;98919.34;5039202;28;20033;-67
2022/03/27 20:45:39;;;;;;;0.95;0.40;;;;;;;16.87;19.29;98917.47;5053951;28;20025;-67
2022/03/27 20:48:08;;;;;;;0.85;0.50;;;;;;;16.93;19.28;98921.25;5053384;28;20450;-66
2022/03/27 20:50:41;;;;;;;1.27;0.47;;;;;;;17.02;18.98;98920.22;5054005;28;20056;-67
2022/03/27 20:53:07;;;;;;;1.35;0.40;;;;;;;17.09;19.24;98920.34;5054145;28;20040;-66
2022/03/27 20:55:34;;;;;;;1.52;0.65;;;;;;;17.17;19.15;98906.06;5053717;28;20032;-67
2022/03/27 20:58:01;;;;;;;0.50;0.50;;;;;;;17.23;18.95;98918.75;5050071;28;20120;-67
2022/03/27 21:00:26;;;;;;;1.58;0.70;;;;;;;17.24;18.60;98917.72;5042830;28;20040;-68
2022/03/27 21:02:52;;;;;;;2.50;0.70;;;;;;;17.27;18.72;98924.53;5053308;28;20048;-70
2022/03/27 21:05:18;;;;;;;1.52;0.57;;;;;;;17.29;19.13;98918.00;5054105;28;20033;-71
2022/03/27 21:07:43;;;;;;;1.80;0.80;;;;;;;17.37;19.78;98920.63;5052211;28;20044;-69
2022/03/27 21:10:09;;;;;;;1.80;0.80;;;;;;;17.46;20.69;98925.88;5053904;28;20037;-70
2022/03/27 21:12:34;;;;;;;1.38;0.68;;;;;;;17.55;20.46;98922.16;5053393;28;20044;-68
2022/03/27 21:15:00;;;;;;;1.83;0.75;;;;;;;17.65;19.88;98927.22;5053937;28;20051;-69
2022/03/27 21:17:26;;;;;;;1.38;0.63;;;;;;;17.68;19.71;98919.69;5052784;28;20055;-67
2022/03/27 21:19:52;;;;;;;1.42;0.80;;;;;;;17.71;19.15;98921.16;5053424;28;20037;-67
2022/03/27 21:22:17;;;;;;;1.25;0.68;;;;;;;17.78;19.45;98924.78;5053116;28;20057;-68
2022/03/27 21:24:43;;;;;;;2.38;0.90;;;;;;;17.82;19.24;98917.19;5052902;28;20506;-67
2022/03/27 21:27:08;;;;;;;1.10;0.70;;;;;;;17.84;19.25;98931.22;5053281;28;20029;-67
2022/03/27 21:29:34;;;;;;;0.73;0.40;;;;;;;17.82;18.73;98922.56;5053981;28;20029;-67
2022/03/27 21:32:00;;;;;;;1.67;1.02;;;;;;;17.82;18.83;98914.53;5053175;28;20064;-67
2022/03/27 21:34:26;;;;;;;3.17;0.70;;;;;;;17.85;18.81;98928.34;5052101;28;20029;-68
2022/03/27 21:36:52;;;;;;;1.13;0.68;;;;;;;17.86;18.44;98918.50;5051166;28;20033;-71
2022/03/27 21:39:19;;;;;;;3.90;0.77;;;;;;;17.87;18.20;98914.78;5053333;28;20064;-71
2022/03/27 21:41:45;;;;;;;2.50;0.80;;;;;;;17.92;18.80;98914.25;5052838;28;20029;-71
2022/03/27 21:44:11;;;;;;;1.95;0.70;;;;;;;17.93;18.29;98924.78;5053665;28;20426;-72
2022/03/27 21:46:36;;;;;;;1.35;0.50;;;;;;;17.96;18.75;98913.69;5052519;28;20113;-70
2022/03/27 21:49:02;;;;;;;2.20;0.85;;;;;;;18.01;18.45;98912.34;5053552;28;20060;-74
2022/03/27 21:51:28;;;;;;;1.75;0.77;;;;;;;18.06;18.90;98923.31;5044960;28;20044;-73
2022/03/27 21:53:53;;;;;;;1.80;0.70;;;;;;;18.09;19.06;98925.63;5053109;28;20514;-73
2022/03/27 21:56:19;;;;;;;2.10;0.73;;;;;;;18.15;19.01;98919.56;5051799;28;20036;-70
2022/03/27 21:58:45;;;;;;;1.88;0.60;;;;;;;18.14;18.97;98905.31;5049684;28;20036;-72
2022/03/27 22:01:13;;;;;;;5.30;0.52;;;;;;;18.22;18.78;98909.75;5036624;28;20029;-72
2022/03/27 22:03:39;;;;;;;1.48;0.60;;;;;;;18.28;18.98;98922.41;5048729;28;20043;-75
2022/03/27 22:06:07;;;;;;;2.28;1.05;;;;;;;18.35;19.51;98921.63;5051857;28;20044;-70
2022/03/27 22:08:35;;;;;;;1.60;0.82;;;;;;;18.37;19.65;98927.66;5052558;28;20037;-70
2022/03/27 22:11:04;;;;;;;3.67;0.70;;;;;;;18.40;20.21;98930.78;5053380;28;20036;-72
2022/03/27 22:13:30;;;;;;;2.20;0.65;;;;;;;18.47;19.92;98938.06;5051515;28;20029;-70
2022/03/27 22:15:55;;;;;;;1.52;0.73;;;;;;;18.50;19.61;98930.50;5053034;28;20033;-71
2022/03/27 22:18:21;;;;;;;3.03;0.63;;;;;;;18.51;19.43;98937.50;5051889;28;20198;-72
2022/03/27 22:20:47;;;;;;;1.48;0.52;;;;;;;18.54;19.64;98934.47;5053011;28;20039;-72
2022/03/27 22:23:13;;;;;;;1.85;0.63;;;;;;;18.57;19.61;98931.41;5052246;28;20145;-71
2022/03/27 22:25:40;;;;;;;1.00;0.50;;;;;;;18.61;19.68;98927.31;5051975;28;20036;-70
2022/03/27 22:28:06;;;;;;;1.23;0.70;;;;;;;18.63;19.71;98932.50;5050347;28;20169;-70
2022/03/27 22:30:32;;;;;;;5.45;0.85;;;;;;;18.64;19.74;98928.81;5050216;28;20165;-72
2022/03/27 22:32:59;;;;;;;0.68;0.32;;;;;;;18.68;19.31;98923.91;5051325;28;20036;-72
2022/03/27 22:35:26;;;;;;;2.05;0.60;;;;;;;18.66;19.71;98920.56;5052253;28;20045;-69
2022/03/27 22:37:52;;;;;;;1.58;0.60;;;;;;;18.69;19.30;98925.56;5050081;28;20033;-69
2022/03/27 22:40:18;;;;;;;2.45;0.70;;;;;;;18.70;19.60;98927.22;5051266;28;20035;-70
2022/03/27 22:42:43;;;;;;;0.77;0.50;;;;;;;18.67;19.21;98917.72;5052117;28;20083;-72
2022/03/27 22:45:09;;;;;;;0.90;0.50;;;;;;;18.73;19.37;98921.50;5053443;28;20384;-71
2022/03/27 22:47:34;;;;;;;0.95;0.47;;;;;;;18.69;19.27;98921.00;5050773;28;20061;-74
2022/03/27 22:50:00;;;;;;;0.80;0.50;;;;;;;18.72;19.29;98922.50;5052226;28;20028;-70
2022/03/27 22:52:25;;;;;;;0.93;0.40;;;;;;;18.72;19.45;98919.81;5051695;28;20020;-71
2022/03/27 22:54:51;;;;;;;0.40;0.40;;;;;;;18.74;19.46;98929.34;5052225;28;20045;-70
2022/03/27 22:57:16;;;;;;;0.90;0.40;;;;;;;18.78;19.43;98923.59;5050166;28;20479;-71
2022/03/27 22:59:43;;;;;;;0.55;0.35;;;;;;;18.82;19.02;98931.06;5051920;28;20048;-70
2022/03/27 23:02:09;;;;;;;0.95;0.60;;;;;;;18.86;19.40;98932.34;5051262;28;20099;-73
2022/03/27 23:04:35;;;;;;;1.00;0.57;;;;;;;18.86;19.78;98935.03;5051846;28;20094;-70
2022/03/27 23:07:01;;;;;;;1.17;0.45;;;;;;;18.90;19.50;98938.16;5051389;28;20029;-71
2022/03/27 23:09:26;;;;;;;1.17;0.57;;;;;;;18.87;19.29;98939.38;5052542;28;20033;-70
2022/03/27 23:11:52;;;;;;;2.78;0.77;;;;;;;18.91;19.29;98939.81;5051399;28;20029;-70
2022/03/27 23:14:17;;;;;;;1.05;0.47;;;;;;;18.94;19.66;98933.25;5051547;28;20045;-66
2022/03/27 23:16:44;;;;;;;1.92;0.55;;;;;;;18.94;19.60;98931.44;5051103;28;20115;-70
2022/03/27 23:19:09;;;;;;;1.30;0.70;;;;;;;18.98;19.56;98937.25;5049134;28;20083;-68
2022/03/27 23:21:36;;;;;;;1.95;0.60;;;;;;;19.01;20.03;98935.00;5049172;28;20139;-69
2022/03/27 23:26:49;;;;;;;0.90;0.60;;;;;;;19.04;19.43;98936.50;5054539;28;20478;-71
2022/03/27 23:29:15;;;;;;;3.42;0.60;;;;;;;19.03;19.34;98929.47;5037802;28;20052;-71
2022/03/27 23:31:40;;;;;;;0.73;0.40;;;;;;;19.04;19.25;98936.50;5055127;28;20043;-68
2022/03/27 23:34:06;;;;;;;0.32;0.32;;;;;;;19.06;19.41;98931.75;5055429;28;20024;-71
2022/03/27 23:36:31;;;;;;;1.00;0.50;;;;;;;19.06;19.14;98942.47;5038200;28;20055;-70
2022/03/27 23:38:57;;;;;;;1.75;0.52;;;;;;;18.85;18.69;98945.94;5053803;28;20033;-70
2022/03/27 23:41:23;;;;;;;1.95;0.50;;;;;;;18.64;18.98;98944.03;5054692;28;20116;-72
2022/03/27 23:43:49;;;;;;;1.08;0.50;;;;;;;18.39;19.12;98929.09;5054045;28;20514;-69
2022/03/27 23:46:15;;;;;;;0.93;0.50;;;;;;;18.15;18.90;98939.13;5055784;28;20029;-69
2022/03/27 23:48:40;;;;;;;0.70;0.40;;;;;;;17.94;18.92;98931.78;5054421;28;20033;-66
2022/03/27 23:51:06;;;;;;;1.08;0.60;;;;;;;17.80;18.81;98940.63;5045659;28;20522;-68
2022/03/27 23:53:33;;;;;;;0.70;0.30;;;;;;;17.63;19.20;98940.78;5047237;28;20064;-73
2022/03/27 23:55:59;;;;;;;1.23;0.40;;;;;;;17.55;19.21;98935.53;5054683;28;20044;-70
2022/03/27 23:58:24;;;;;;;1.25;0.50;;;;;;;17.47;19.11;98935.56;5053659;28;20028;-68
